sensor_id;sensor_type;location;lat;lon;timestamp;P1;durP1;ratioP1;P2;durP2;ratioP2
51995;SDS011;38010;53.264;6.592;2023-04-24T00:00:16;0.47;;;0.35;;
51995;SDS011;38010;53.264;6.592;2023-04-24T00:02:43;0.30;;;0.30;;
51995;SDS011;38010;53.264;6.592;2023-04-24T00:05:13;0.20;;;0.20;;
51995;SDS011;38010;53.264;6.592;2023-04-24T00:07:40;0.80;;;0.30;;
51995;SDS011;38010;53.264;6.592;2023-04-24T00:10:06;0.73;;;0.30;;
51995;SDS011;38010;53.264;6.592;2023-04-24T00:12:32;0.20;;;0.20;;
51995;SDS011;38010;53.264;6.592;2023-04-24T00:14:58;0.20;;;0.20;;
51995;SDS011;38010;53.264;6.592;2023-04-24T00:17:24;0.30;;;0.30;;
51995;SDS011;38010;53.264;6.592;2023-04-24T00:19:50;0.30;;;0.30;;
51995;SDS011;38010;53.264;6.592;2023-04-24T00:22:16;0.30;;;0.30;;
51995;SDS011;38010;53.264;6.592;2023-04-24T00:24:42;0.40;;;0.30;;
51995;SDS011;38010;53.264;6.592;2023-04-24T00:27:08;0.30;;;0.30;;
51995;SDS011;38010;53.264;6.592;2023-04-24T00:29:34;0.25;;;0.25;;
51995;SDS011;38010;53.264;6.592;2023-04-24T00:32:00;0.32;;;0.30;;
51995;SDS011;38010;53.264;6.592;2023-04-24T00:34:25;0.30;;;0.30;;
51995;SDS011;38010;53.264;6.592;2023-04-24T00:36:51;0.22;;;0.22;;
51995;SDS011;38010;53.264;6.592;2023-04-24T00:39:20;0.30;;;0.30;;
51995;SDS011;38010;53.264;6.592;2023-04-24T00:41:46;0.30;;;0.30;;
51995;SDS011;38010;53.264;6.592;2023-04-24T00:44:13;0.50;;;0.30;;
51995;SDS011;38010;53.264;6.592;2023-04-24T00:46:39;0.30;;;0.30;;
51995;SDS011;38010;53.264;6.592;2023-04-24T00:49:06;0.30;;;0.30;;
51995;SDS011;38010;53.264;6.592;2023-04-24T00:51:32;0.63;;;0.30;;
51995;SDS011;38010;53.264;6.592;2023-04-24T00:54:01;0.30;;;0.30;;
51995;SDS011;38010;53.264;6.592;2023-04-24T00:56:26;0.30;;;0.30;;
51995;SDS011;38010;53.264;6.592;2023-04-24T00:58:53;0.30;;;0.30;;
51995;SDS011;38010;53.264;6.592;2023-04-24T01:01:20;0.20;;;0.20;;
51995;SDS011;38010;53.264;6.592;2023-04-24T01:03:46;0.30;;;0.30;;
51995;SDS011;38010;53.264;6.592;2023-04-24T01:06:13;0.20;;;0.20;;
51995;SDS011;38010;53.264;6.592;2023-04-24T01:08:40;0.30;;;0.30;;
51995;SDS011;38010;53.264;6.592;2023-04-24T01:11:07;0.52;;;0.30;;
51995;SDS011;38010;53.264;6.592;2023-04-24T01:13:33;0.30;;;0.30;;
51995;SDS011;38010;53.264;6.592;2023-04-24T01:15:59;0.30;;;0.20;;
51995;SDS011;38010;53.264;6.592;2023-04-24T01:18:26;0.20;;;0.20;;
51995;SDS011;38010;53.264;6.592;2023-04-24T01:20:56;0.30;;;0.22;;
51995;SDS011;38010;53.264;6.592;2023-04-24T01:23:24;0.30;;;0.30;;
51995;SDS011;38010;53.264;6.592;2023-04-24T01:25:49;0.30;;;0.30;;
51995;SDS011;38010;53.264;6.592;2023-04-24T01:28:16;0.20;;;0.20;;
51995;SDS011;38010;53.264;6.592;2023-04-24T01:30:42;0.40;;;0.40;;
51995;SDS011;38010;53.264;6.592;2023-04-24T01:33:08;0.38;;;0.30;;
51995;SDS011;38010;53.264;6.592;2023-04-24T01:35:35;0.90;;;0.30;;
51995;SDS011;38010;53.264;6.592;2023-04-24T01:38:02;0.50;;;0.40;;
51995;SDS011;38010;53.264;6.592;2023-04-24T01:40:28;0.30;;;0.30;;
51995;SDS011;38010;53.264;6.592;2023-04-24T01:42:54;0.40;;;0.32;;
51995;SDS011;38010;53.264;6.592;2023-04-24T01:45:20;0.30;;;0.30;;
51995;SDS011;38010;53.264;6.592;2023-04-24T01:47:46;0.40;;;0.40;;
51995;SDS011;38010;53.264;6.592;2023-04-24T01:50:12;0.30;;;0.30;;
51995;SDS011;38010;53.264;6.592;2023-04-24T01:52:38;0.25;;;0.25;;
51995;SDS011;38010;53.264;6.592;2023-04-24T01:55:04;0.30;;;0.30;;
51995;SDS011;38010;53.264;6.592;2023-04-24T01:57:32;0.20;;;0.20;;
51995;SDS011;38010;53.264;6.592;2023-04-24T01:59:58;0.52;;;0.32;;
51995;SDS011;38010;53.264;6.592;2023-04-24T02:02:25;0.22;;;0.22;;
51995;SDS011;38010;53.264;6.592;2023-04-24T02:04:55;0.20;;;0.20;;
51995;SDS011;38010;53.264;6.592;2023-04-24T02:07:22;0.30;;;0.30;;
51995;SDS011;38010;53.264;6.592;2023-04-24T02:09:48;0.20;;;0.20;;
51995;SDS011;38010;53.264;6.592;2023-04-24T02:12:16;0.20;;;0.20;;
51995;SDS011;38010;53.264;6.592;2023-04-24T02:14:42;0.38;;;0.30;;
51995;SDS011;38010;53.264;6.592;2023-04-24T02:17:08;0.30;;;0.30;;
51995;SDS011;38010;53.264;6.592;2023-04-24T02:19:34;0.38;;;0.20;;
51995;SDS011;38010;53.264;6.592;2023-04-24T02:22:00;0.20;;;0.20;;
51995;SDS011;38010;53.264;6.592;2023-04-24T02:24:26;0.20;;;0.20;;
51995;SDS011;38010;53.264;6.592;2023-04-24T02:26:51;0.30;;;0.30;;
51995;SDS011;38010;53.264;6.592;2023-04-24T02:29:17;0.20;;;0.20;;
51995;SDS011;38010;53.264;6.592;2023-04-24T02:31:43;0.40;;;0.20;;
51995;SDS011;38010;53.264;6.592;2023-04-24T02:34:08;0.43;;;0.30;;
51995;SDS011;38010;53.264;6.592;2023-04-24T02:36:34;0.13;;;0.13;;
51995;SDS011;38010;53.264;6.592;2023-04-24T02:39:00;0.20;;;0.20;;
51995;SDS011;38010;53.264;6.592;2023-04-24T02:41:26;0.22;;;0.20;;
51995;SDS011;38010;53.264;6.592;2023-04-24T02:43:57;0.20;;;0.20;;
51995;SDS011;38010;53.264;6.592;2023-04-24T02:46:23;0.55;;;0.20;;
51995;SDS011;38010;53.264;6.592;2023-04-24T02:48:49;0.20;;;0.20;;
51995;SDS011;38010;53.264;6.592;2023-04-24T02:51:15;0.20;;;0.20;;
51995;SDS011;38010;53.264;6.592;2023-04-24T02:53:40;0.17;;;0.17;;
51995;SDS011;38010;53.264;6.592;2023-04-24T02:56:06;0.20;;;0.20;;
51995;SDS011;38010;53.264;6.592;2023-04-24T02:58:32;0.28;;;0.28;;
51995;SDS011;38010;53.264;6.592;2023-04-24T03:00:58;0.20;;;0.20;;
51995;SDS011;38010;53.264;6.592;2023-04-24T03:03:23;0.20;;;0.20;;
51995;SDS011;38010;53.264;6.592;2023-04-24T03:05:49;0.32;;;0.20;;
51995;SDS011;38010;53.264;6.592;2023-04-24T03:08:15;0.10;;;0.10;;
51995;SDS011;38010;53.264;6.592;2023-04-24T03:10:41;0.20;;;0.20;;
51995;SDS011;38010;53.264;6.592;2023-04-24T03:13:06;0.20;;;0.20;;
51995;SDS011;38010;53.264;6.592;2023-04-24T03:15:32;0.20;;;0.20;;
51995;SDS011;38010;53.264;6.592;2023-04-24T03:17:58;0.20;;;0.20;;
51995;SDS011;38010;53.264;6.592;2023-04-24T03:20:25;0.20;;;0.20;;
51995;SDS011;38010;53.264;6.592;2023-04-24T03:22:51;0.20;;;0.20;;
51995;SDS011;38010;53.264;6.592;2023-04-24T03:25:17;0.20;;;0.20;;
51995;SDS011;38010;53.264;6.592;2023-04-24T03:27:42;0.28;;;0.20;;
51995;SDS011;38010;53.264;6.592;2023-04-24T03:30:08;0.20;;;0.20;;
51995;SDS011;38010;53.264;6.592;2023-04-24T03:32:35;0.45;;;0.30;;
51995;SDS011;38010;53.264;6.592;2023-04-24T03:35:01;0.20;;;0.20;;
51995;SDS011;38010;53.264;6.592;2023-04-24T03:37:26;0.20;;;0.20;;
51995;SDS011;38010;53.264;6.592;2023-04-24T03:39:52;0.20;;;0.20;;
51995;SDS011;38010;53.264;6.592;2023-04-24T03:42:18;0.20;;;0.20;;
51995;SDS011;38010;53.264;6.592;2023-04-24T03:44:44;0.20;;;0.20;;
51995;SDS011;38010;53.264;6.592;2023-04-24T03:47:09;0.20;;;0.20;;
51995;SDS011;38010;53.264;6.592;2023-04-24T03:49:35;0.20;;;0.20;;
51995;SDS011;38010;53.264;6.592;2023-04-24T03:52:01;0.20;;;0.20;;
51995;SDS011;38010;53.264;6.592;2023-04-24T03:54:27;0.25;;;0.25;;
51995;SDS011;38010;53.264;6.592;2023-04-24T03:56:52;0.35;;;0.20;;
51995;SDS011;38010;53.264;6.592;2023-04-24T03:59:18;0.20;;;0.20;;
51995;SDS011;38010;53.264;6.592;2023-04-24T04:01:44;0.20;;;0.20;;
51995;SDS011;38010;53.264;6.592;2023-04-24T04:04:10;0.20;;;0.20;;
51995;SDS011;38010;53.264;6.592;2023-04-24T04:06:36;5.30;;;0.35;;
51995;SDS011;38010;53.264;6.592;2023-04-24T04:09:02;1.88;;;0.20;;
51995;SDS011;38010;53.264;6.592;2023-04-24T04:11:28;0.40;;;0.30;;
51995;SDS011;38010;53.264;6.592;2023-04-24T04:13:55;0.20;;;0.20;;
51995;SDS011;38010;53.264;6.592;2023-04-24T04:16:22;0.47;;;0.25;;
51995;SDS011;38010;53.264;6.592;2023-04-24T04:18:48;1.08;;;0.20;;
51995;SDS011;38010;53.264;6.592;2023-04-24T04:21:13;0.45;;;0.22;;
51995;SDS011;38010;53.264;6.592;2023-04-24T04:23:39;1.08;;;0.30;;
51995;SDS011;38010;53.264;6.592;2023-04-24T04:26:05;2.60;;;0.30;;
51995;SDS011;38010;53.264;6.592;2023-04-24T04:28:31;0.20;;;0.20;;
51995;SDS011;38010;53.264;6.592;2023-04-24T04:30:57;0.77;;;0.30;;
51995;SDS011;38010;53.264;6.592;2023-04-24T04:33:23;0.98;;;0.30;;
51995;SDS011;38010;53.264;6.592;2023-04-24T04:35:50;4.35;;;0.30;;
51995;SDS011;38010;53.264;6.592;2023-04-24T04:38:22;0.20;;;0.20;;
51995;SDS011;38010;53.264;6.592;2023-04-24T04:40:47;1.15;;;0.22;;
51995;SDS011;38010;53.264;6.592;2023-04-24T04:43:13;1.02;;;0.20;;
51995;SDS011;38010;53.264;6.592;2023-04-24T04:45:42;0.35;;;0.20;;
51995;SDS011;38010;53.264;6.592;2023-04-24T04:48:09;2.05;;;0.60;;
51995;SDS011;38010;53.264;6.592;2023-04-24T04:50:37;0.70;;;0.25;;
51995;SDS011;38010;53.264;6.592;2023-04-24T04:53:03;3.03;;;0.32;;
51995;SDS011;38010;53.264;6.592;2023-04-24T04:55:29;1.08;;;0.32;;
51995;SDS011;38010;53.264;6.592;2023-04-24T04:57:55;0.25;;;0.20;;
51995;SDS011;38010;53.264;6.592;2023-04-24T05:00:21;0.47;;;0.20;;
51995;SDS011;38010;53.264;6.592;2023-04-24T05:02:50;1.48;;;0.30;;
51995;SDS011;38010;53.264;6.592;2023-04-24T05:05:16;2.50;;;0.40;;
51995;SDS011;38010;53.264;6.592;2023-04-24T05:07:43;1.05;;;0.50;;
51995;SDS011;38010;53.264;6.592;2023-04-24T05:10:09;5.65;;;0.40;;
51995;SDS011;38010;53.264;6.592;2023-04-24T05:12:35;2.88;;;0.43;;
51995;SDS011;38010;53.264;6.592;2023-04-24T05:15:01;3.88;;;0.65;;
51995;SDS011;38010;53.264;6.592;2023-04-24T05:17:28;4.80;;;0.65;;
51995;SDS011;38010;53.264;6.592;2023-04-24T05:19:53;1.10;;;0.40;;
51995;SDS011;38010;53.264;6.592;2023-04-24T05:22:19;1.13;;;0.45;;
51995;SDS011;38010;53.264;6.592;2023-04-24T05:24:46;0.90;;;0.30;;
51995;SDS011;38010;53.264;6.592;2023-04-24T05:27:13;0.57;;;0.30;;
51995;SDS011;38010;53.264;6.592;2023-04-24T05:29:39;1.08;;;0.30;;
51995;SDS011;38010;53.264;6.592;2023-04-24T05:32:05;0.30;;;0.30;;
51995;SDS011;38010;53.264;6.592;2023-04-24T05:34:30;0.73;;;0.30;;
51995;SDS011;38010;53.264;6.592;2023-04-24T05:36:56;1.52;;;0.60;;
51995;SDS011;38010;53.264;6.592;2023-04-24T05:39:22;3.13;;;0.50;;
51995;SDS011;38010;53.264;6.592;2023-04-24T05:41:50;3.03;;;0.50;;
51995;SDS011;38010;53.264;6.592;2023-04-24T05:44:16;1.55;;;0.40;;
51995;SDS011;38010;53.264;6.592;2023-04-24T05:46:41;1.42;;;0.30;;
51995;SDS011;38010;53.264;6.592;2023-04-24T05:49:07;0.73;;;0.32;;
51995;SDS011;38010;53.264;6.592;2023-04-24T05:51:33;0.80;;;0.40;;
51995;SDS011;38010;53.264;6.592;2023-04-24T05:53:59;2.20;;;0.40;;
51995;SDS011;38010;53.264;6.592;2023-04-24T05:56:25;1.67;;;0.40;;
51995;SDS011;38010;53.264;6.592;2023-04-24T05:58:51;0.70;;;0.40;;
51995;SDS011;38010;53.264;6.592;2023-04-24T06:01:16;1.77;;;0.30;;
51995;SDS011;38010;53.264;6.592;2023-04-24T06:03:43;1.05;;;0.40;;
51995;SDS011;38010;53.264;6.592;2023-04-24T06:06:08;1.10;;;0.40;;
51995;SDS011;38010;53.264;6.592;2023-04-24T06:08:34;0.30;;;0.30;;
51995;SDS011;38010;53.264;6.592;2023-04-24T06:11:01;4.40;;;0.60;;
51995;SDS011;38010;53.264;6.592;2023-04-24T06:13:26;2.00;;;0.50;;
51995;SDS011;38010;53.264;6.592;2023-04-24T06:15:52;0.75;;;0.30;;
51995;SDS011;38010;53.264;6.592;2023-04-24T06:18:19;2.15;;;0.50;;
51995;SDS011;38010;53.264;6.592;2023-04-24T06:20:46;2.58;;;0.50;;
51995;SDS011;38010;53.264;6.592;2023-04-24T06:23:11;2.58;;;0.40;;
51995;SDS011;38010;53.264;6.592;2023-04-24T06:25:37;2.75;;;0.70;;
51995;SDS011;38010;53.264;6.592;2023-04-24T06:28:03;3.05;;;0.50;;
51995;SDS011;38010;53.264;6.592;2023-04-24T06:30:29;0.93;;;0.40;;
51995;SDS011;38010;53.264;6.592;2023-04-24T06:32:56;0.73;;;0.40;;
51995;SDS011;38010;53.264;6.592;2023-04-24T06:35:21;0.20;;;0.20;;
51995;SDS011;38010;53.264;6.592;2023-04-24T06:37:47;0.30;;;0.30;;
51995;SDS011;38010;53.264;6.592;2023-04-24T06:40:13;0.70;;;0.30;;
51995;SDS011;38010;53.264;6.592;2023-04-24T06:42:39;0.55;;;0.30;;
51995;SDS011;38010;53.264;6.592;2023-04-24T06:45:05;0.45;;;0.40;;
51995;SDS011;38010;53.264;6.592;2023-04-24T06:47:31;0.30;;;0.30;;
51995;SDS011;38010;53.264;6.592;2023-04-24T06:49:57;0.60;;;0.40;;
51995;SDS011;38010;53.264;6.592;2023-04-24T06:52:23;1.45;;;0.40;;
51995;SDS011;38010;53.264;6.592;2023-04-24T06:54:48;0.77;;;0.30;;
51995;SDS011;38010;53.264;6.592;2023-04-24T06:57:14;0.65;;;0.35;;
51995;SDS011;38010;53.264;6.592;2023-04-24T06:59:41;0.35;;;0.30;;
51995;SDS011;38010;53.264;6.592;2023-04-24T07:02:07;0.40;;;0.30;;
51995;SDS011;38010;53.264;6.592;2023-04-24T07:04:33;0.95;;;0.40;;
51995;SDS011;38010;53.264;6.592;2023-04-24T07:06:58;0.45;;;0.30;;
51995;SDS011;38010;53.264;6.592;2023-04-24T07:09:25;0.40;;;0.40;;
51995;SDS011;38010;53.264;6.592;2023-04-24T07:11:51;0.60;;;0.30;;
51995;SDS011;38010;53.264;6.592;2023-04-24T07:14:18;0.30;;;0.30;;
51995;SDS011;38010;53.264;6.592;2023-04-24T07:16:44;0.40;;;0.30;;
51995;SDS011;38010;53.264;6.592;2023-04-24T07:19:12;1.30;;;0.57;;
51995;SDS011;38010;53.264;6.592;2023-04-24T07:21:38;2.45;;;0.38;;
51995;SDS011;38010;53.264;6.592;2023-04-24T07:24:04;0.30;;;0.30;;
51995;SDS011;38010;53.264;6.592;2023-04-24T07:26:30;0.30;;;0.30;;
51995;SDS011;38010;53.264;6.592;2023-04-24T07:28:57;0.30;;;0.30;;
51995;SDS011;38010;53.264;6.592;2023-04-24T07:31:22;0.38;;;0.38;;
51995;SDS011;38010;53.264;6.592;2023-04-24T07:33:48;0.60;;;0.50;;
51995;SDS011;38010;53.264;6.592;2023-04-24T07:36:14;0.52;;;0.30;;
51995;SDS011;38010;53.264;6.592;2023-04-24T07:38:44;0.55;;;0.43;;
51995;SDS011;38010;53.264;6.592;2023-04-24T07:41:10;0.22;;;0.22;;
51995;SDS011;38010;53.264;6.592;2023-04-24T07:43:36;0.57;;;0.25;;
51995;SDS011;38010;53.264;6.592;2023-04-24T07:46:02;0.30;;;0.30;;
51995;SDS011;38010;53.264;6.592;2023-04-24T07:48:28;0.30;;;0.30;;
51995;SDS011;38010;53.264;6.592;2023-04-24T07:50:53;0.77;;;0.30;;
51995;SDS011;38010;53.264;6.592;2023-04-24T07:53:20;0.30;;;0.30;;
51995;SDS011;38010;53.264;6.592;2023-04-24T07:55:45;0.30;;;0.30;;
51995;SDS011;38010;53.264;6.592;2023-04-24T07:58:11;0.93;;;0.30;;
51995;SDS011;38010;53.264;6.592;2023-04-24T08:00:37;0.40;;;0.35;;
51995;SDS011;38010;53.264;6.592;2023-04-24T08:03:02;0.38;;;0.38;;
51995;SDS011;38010;53.264;6.592;2023-04-24T08:05:28;0.30;;;0.30;;
51995;SDS011;38010;53.264;6.592;2023-04-24T08:07:54;0.32;;;0.25;;
51995;SDS011;38010;53.264;6.592;2023-04-24T08:10:22;0.32;;;0.30;;
51995;SDS011;38010;53.264;6.592;2023-04-24T08:12:48;0.30;;;0.30;;
51995;SDS011;38010;53.264;6.592;2023-04-24T08:15:14;0.95;;;0.38;;
51995;SDS011;38010;53.264;6.592;2023-04-24T08:17:40;0.88;;;0.40;;
51995;SDS011;38010;53.264;6.592;2023-04-24T08:20:06;0.43;;;0.20;;
51995;SDS011;38010;53.264;6.592;2023-04-24T08:22:38;0.40;;;0.30;;
51995;SDS011;38010;53.264;6.592;2023-04-24T08:25:07;0.20;;;0.20;;
51995;SDS011;38010;53.264;6.592;2023-04-24T08:27:33;0.32;;;0.30;;
51995;SDS011;38010;53.264;6.592;2023-04-24T08:29:59;0.35;;;0.30;;
51995;SDS011;38010;53.264;6.592;2023-04-24T08:32:25;1.52;;;0.40;;
51995;SDS011;38010;53.264;6.592;2023-04-24T08:34:54;0.40;;;0.30;;
51995;SDS011;38010;53.264;6.592;2023-04-24T08:37:25;0.50;;;0.30;;
51995;SDS011;38010;53.264;6.592;2023-04-24T08:39:52;0.30;;;0.30;;
51995;SDS011;38010;53.264;6.592;2023-04-24T08:42:18;1.00;;;0.50;;
51995;SDS011;38010;53.264;6.592;2023-04-24T08:44:46;0.60;;;0.40;;
51995;SDS011;38010;53.264;6.592;2023-04-24T08:47:13;0.45;;;0.40;;
51995;SDS011;38010;53.264;6.592;2023-04-24T08:49:40;0.85;;;0.30;;
51995;SDS011;38010;53.264;6.592;2023-04-24T08:52:07;0.88;;;0.50;;
51995;SDS011;38010;53.264;6.592;2023-04-24T08:54:34;0.75;;;0.60;;
51995;SDS011;38010;53.264;6.592;2023-04-24T08:57:01;0.43;;;0.43;;
51995;SDS011;38010;53.264;6.592;2023-04-24T08:59:28;2.00;;;0.50;;
51995;SDS011;38010;53.264;6.592;2023-04-24T09:01:59;0.73;;;0.40;;
51995;SDS011;38010;53.264;6.592;2023-04-24T09:04:28;0.95;;;0.50;;
51995;SDS011;38010;53.264;6.592;2023-04-24T09:06:55;0.63;;;0.50;;
51995;SDS011;38010;53.264;6.592;2023-04-24T09:09:22;0.47;;;0.47;;
51995;SDS011;38010;53.264;6.592;2023-04-24T09:11:50;0.73;;;0.55;;
51995;SDS011;38010;53.264;6.592;2023-04-24T09:14:18;0.85;;;0.50;;
51995;SDS011;38010;53.264;6.592;2023-04-24T09:16:45;0.70;;;0.60;;
51995;SDS011;38010;53.264;6.592;2023-04-24T09:19:12;0.57;;;0.47;;
51995;SDS011;38010;53.264;6.592;2023-04-24T09:21:38;0.50;;;0.43;;
51995;SDS011;38010;53.264;6.592;2023-04-24T09:24:08;0.40;;;0.40;;
51995;SDS011;38010;53.264;6.592;2023-04-24T09:26:43;0.50;;;0.50;;
51995;SDS011;38010;53.264;6.592;2023-04-24T09:29:16;0.85;;;0.50;;
51995;SDS011;38010;53.264;6.592;2023-04-24T09:31:43;1.00;;;0.55;;
51995;SDS011;38010;53.264;6.592;2023-04-24T09:34:10;0.90;;;0.70;;
51995;SDS011;38010;53.264;6.592;2023-04-24T09:36:37;1.02;;;0.60;;
51995;SDS011;38010;53.264;6.592;2023-04-24T09:39:08;0.50;;;0.50;;
51995;SDS011;38010;53.264;6.592;2023-04-24T09:41:52;0.83;;;0.70;;
51995;SDS011;38010;53.264;6.592;2023-04-24T09:44:21;2.13;;;0.80;;
51995;SDS011;38010;53.264;6.592;2023-04-24T09:47:06;0.50;;;0.50;;
51995;SDS011;38010;53.264;6.592;2023-04-24T09:49:35;0.75;;;0.70;;
51995;SDS011;38010;53.264;6.592;2023-04-24T09:52:10;0.70;;;0.60;;
51995;SDS011;38010;53.264;6.592;2023-04-24T09:54:36;0.80;;;0.77;;
51995;SDS011;38010;53.264;6.592;2023-04-24T09:57:03;0.90;;;0.63;;
51995;SDS011;38010;53.264;6.592;2023-04-24T09:59:29;1.23;;;0.75;;
51995;SDS011;38010;53.264;6.592;2023-04-24T10:01:56;0.80;;;0.65;;
51995;SDS011;38010;53.264;6.592;2023-04-24T10:04:26;0.50;;;0.50;;
51995;SDS011;38010;53.264;6.592;2023-04-24T10:06:54;1.33;;;0.80;;
51995;SDS011;38010;53.264;6.592;2023-04-24T10:09:23;1.20;;;0.90;;
51995;SDS011;38010;53.264;6.592;2023-04-24T10:11:51;1.20;;;0.90;;
51995;SDS011;38010;53.264;6.592;2023-04-24T10:14:22;2.95;;;0.80;;
51995;SDS011;38010;53.264;6.592;2023-04-24T10:16:49;1.13;;;0.80;;
51995;SDS011;38010;53.264;6.592;2023-04-24T10:19:17;1.73;;;0.90;;
51995;SDS011;38010;53.264;6.592;2023-04-24T10:21:43;1.10;;;1.00;;
51995;SDS011;38010;53.264;6.592;2023-04-24T10:24:16;1.30;;;0.82;;
51995;SDS011;38010;53.264;6.592;2023-04-24T10:26:43;3.22;;;0.90;;
51995;SDS011;38010;53.264;6.592;2023-04-24T10:29:11;1.10;;;0.88;;
51995;SDS011;38010;53.264;6.592;2023-04-24T10:31:38;2.22;;;1.20;;
51995;SDS011;38010;53.264;6.592;2023-04-24T10:34:05;1.20;;;0.90;;
51995;SDS011;38010;53.264;6.592;2023-04-24T10:36:34;2.08;;;0.93;;
51995;SDS011;38010;53.264;6.592;2023-04-24T10:39:05;2.07;;;0.90;;
51995;SDS011;38010;53.264;6.592;2023-04-24T10:41:36;1.73;;;0.80;;
51995;SDS011;38010;53.264;6.592;2023-04-24T10:44:06;1.38;;;0.85;;
51995;SDS011;38010;53.264;6.592;2023-04-24T10:46:34;1.02;;;0.70;;
51995;SDS011;38010;53.264;6.592;2023-04-24T10:49:04;1.98;;;0.80;;
51995;SDS011;38010;53.264;6.592;2023-04-24T10:59:51;1.20;;;0.80;;
51995;SDS011;38010;53.264;6.592;2023-04-24T11:02:37;2.13;;;0.82;;
51995;SDS011;38010;53.264;6.592;2023-04-24T11:05:05;1.42;;;0.90;;
51995;SDS011;38010;53.264;6.592;2023-04-24T11:10:45;1.05;;;0.70;;
51995;SDS011;38010;53.264;6.592;2023-04-24T11:13:15;0.75;;;0.63;;
51995;SDS011;38010;53.264;6.592;2023-04-24T11:15:42;1.13;;;0.75;;
51995;SDS011;38010;53.264;6.592;2023-04-24T11:18:15;1.58;;;0.70;;
51995;SDS011;38010;53.264;6.592;2023-04-24T11:20:44;2.22;;;0.80;;
51995;SDS011;38010;53.264;6.592;2023-04-24T11:23:12;2.33;;;1.02;;
51995;SDS011;38010;53.264;6.592;2023-04-24T11:25:39;0.70;;;0.70;;
51995;SDS011;38010;53.264;6.592;2023-04-24T11:28:06;1.95;;;0.90;;
51995;SDS011;38010;53.264;6.592;2023-04-24T11:30:32;2.28;;;0.80;;
51995;SDS011;38010;53.264;6.592;2023-04-24T11:33:03;1.55;;;0.68;;
51995;SDS011;38010;53.264;6.592;2023-04-24T11:35:30;1.10;;;1.00;;
51995;SDS011;38010;53.264;6.592;2023-04-24T11:38:02;0.85;;;0.70;;
51995;SDS011;38010;53.264;6.592;2023-04-24T11:40:29;0.98;;;0.80;;
51995;SDS011;38010;53.264;6.592;2023-04-24T11:42:55;1.50;;;0.85;;
51995;SDS011;38010;53.264;6.592;2023-04-24T11:45:22;1.20;;;0.70;;
51995;SDS011;38010;53.264;6.592;2023-04-24T11:47:49;1.77;;;0.60;;
51995;SDS011;38010;53.264;6.592;2023-04-24T11:50:16;0.93;;;0.68;;
51995;SDS011;38010;53.264;6.592;2023-04-24T11:52:44;0.65;;;0.50;;
51995;SDS011;38010;53.264;6.592;2023-04-24T11:57:44;0.93;;;0.60;;
51995;SDS011;38010;53.264;6.592;2023-04-24T12:00:18;0.70;;;0.70;;
51995;SDS011;38010;53.264;6.592;2023-04-24T12:02:45;0.77;;;0.60;;
51995;SDS011;38010;53.264;6.592;2023-04-24T12:05:24;0.77;;;0.68;;
51995;SDS011;38010;53.264;6.592;2023-04-24T12:07:51;0.63;;;0.60;;
51995;SDS011;38010;53.264;6.592;2023-04-24T12:10:21;0.88;;;0.73;;
51995;SDS011;38010;53.264;6.592;2023-04-24T12:12:48;0.68;;;0.63;;
51995;SDS011;38010;53.264;6.592;2023-04-24T12:15:16;2.08;;;0.80;;
51995;SDS011;38010;53.264;6.592;2023-04-24T12:17:43;0.85;;;0.70;;
51995;SDS011;38010;53.264;6.592;2023-04-24T12:20:10;0.82;;;0.70;;
51995;SDS011;38010;53.264;6.592;2023-04-24T12:22:55;1.30;;;0.60;;
51995;SDS011;38010;53.264;6.592;2023-04-24T12:25:23;1.38;;;0.70;;
51995;SDS011;38010;53.264;6.592;2023-04-24T12:27:54;1.38;;;0.63;;
51995;SDS011;38010;53.264;6.592;2023-04-24T12:30:30;1.10;;;0.60;;
51995;SDS011;38010;53.264;6.592;2023-04-24T12:32:59;1.88;;;0.80;;
51995;SDS011;38010;53.264;6.592;2023-04-24T12:35:28;1.95;;;0.68;;
51995;SDS011;38010;53.264;6.592;2023-04-24T12:37:54;0.98;;;0.60;;
51995;SDS011;38010;53.264;6.592;2023-04-24T12:40:21;1.38;;;0.80;;
51995;SDS011;38010;53.264;6.592;2023-04-24T12:42:50;1.00;;;0.65;;
51995;SDS011;38010;53.264;6.592;2023-04-24T12:45:17;1.08;;;0.70;;
51995;SDS011;38010;53.264;6.592;2023-04-24T12:47:44;1.00;;;0.70;;
51995;SDS011;38010;53.264;6.592;2023-04-24T12:50:11;0.73;;;0.60;;
51995;SDS011;38010;53.264;6.592;2023-04-24T12:52:38;0.57;;;0.57;;
51995;SDS011;38010;53.264;6.592;2023-04-24T12:55:05;1.90;;;0.65;;
51995;SDS011;38010;53.264;6.592;2023-04-24T12:57:33;1.17;;;0.70;;
51995;SDS011;38010;53.264;6.592;2023-04-24T13:00:00;1.00;;;0.60;;
51995;SDS011;38010;53.264;6.592;2023-04-24T13:02:27;0.63;;;0.60;;
51995;SDS011;38010;53.264;6.592;2023-04-24T13:04:55;0.70;;;0.60;;
51995;SDS011;38010;53.264;6.592;2023-04-24T13:07:21;0.90;;;0.60;;
51995;SDS011;38010;53.264;6.592;2023-04-24T13:09:47;1.38;;;0.70;;
51995;SDS011;38010;53.264;6.592;2023-04-24T13:12:14;1.13;;;0.60;;
51995;SDS011;38010;53.264;6.592;2023-04-24T13:14:40;1.65;;;0.60;;
51995;SDS011;38010;53.264;6.592;2023-04-24T13:17:05;0.88;;;0.60;;
51995;SDS011;38010;53.264;6.592;2023-04-24T13:19:36;0.75;;;0.60;;
51995;SDS011;38010;53.264;6.592;2023-04-24T13:22:02;0.60;;;0.50;;
51995;SDS011;38010;53.264;6.592;2023-04-24T13:24:28;0.60;;;0.50;;
51995;SDS011;38010;53.264;6.592;2023-04-24T13:26:54;0.50;;;0.50;;
51995;SDS011;38010;53.264;6.592;2023-04-24T13:29:21;0.73;;;0.57;;
51995;SDS011;38010;53.264;6.592;2023-04-24T13:31:52;0.73;;;0.52;;
51995;SDS011;38010;53.264;6.592;2023-04-24T13:34:20;0.70;;;0.60;;
51995;SDS011;38010;53.264;6.592;2023-04-24T13:36:46;1.67;;;0.80;;
51995;SDS011;38010;53.264;6.592;2023-04-24T13:39:12;1.13;;;0.50;;
51995;SDS011;38010;53.264;6.592;2023-04-24T13:41:38;0.65;;;0.50;;
51995;SDS011;38010;53.264;6.592;2023-04-24T13:44:05;0.50;;;0.50;;
51995;SDS011;38010;53.264;6.592;2023-04-24T13:46:31;0.63;;;0.63;;
51995;SDS011;38010;53.264;6.592;2023-04-24T13:48:57;1.30;;;0.60;;
51995;SDS011;38010;53.264;6.592;2023-04-24T13:51:24;1.00;;;0.73;;
51995;SDS011;38010;53.264;6.592;2023-04-24T13:53:52;0.90;;;0.50;;
51995;SDS011;38010;53.264;6.592;2023-04-24T13:56:18;0.60;;;0.60;;
51995;SDS011;38010;53.264;6.592;2023-04-24T13:58:45;0.93;;;0.50;;
51995;SDS011;38010;53.264;6.592;2023-04-24T14:01:11;0.75;;;0.50;;
51995;SDS011;38010;53.264;6.592;2023-04-24T14:03:38;0.45;;;0.40;;
51995;SDS011;38010;53.264;6.592;2023-04-24T14:06:04;0.50;;;0.50;;
51995;SDS011;38010;53.264;6.592;2023-04-24T14:08:31;1.08;;;0.50;;
51995;SDS011;38010;53.264;6.592;2023-04-24T14:10:57;0.98;;;0.50;;
51995;SDS011;38010;53.264;6.592;2023-04-24T14:13:23;0.47;;;0.40;;
51995;SDS011;38010;53.264;6.592;2023-04-24T14:15:49;0.65;;;0.40;;
51995;SDS011;38010;53.264;6.592;2023-04-24T14:18:14;1.08;;;0.50;;
51995;SDS011;38010;53.264;6.592;2023-04-24T14:20:40;0.50;;;0.50;;
51995;SDS011;38010;53.264;6.592;2023-04-24T14:23:06;1.23;;;0.50;;
51995;SDS011;38010;53.264;6.592;2023-04-24T14:25:33;0.65;;;0.40;;
51995;SDS011;38010;53.264;6.592;2023-04-24T14:27:59;0.40;;;0.40;;
51995;SDS011;38010;53.264;6.592;2023-04-24T14:30:24;0.80;;;0.50;;
51995;SDS011;38010;53.264;6.592;2023-04-24T14:32:50;0.45;;;0.40;;
51995;SDS011;38010;53.264;6.592;2023-04-24T14:35:16;1.02;;;0.60;;
51995;SDS011;38010;53.264;6.592;2023-04-24T14:37:42;1.92;;;0.45;;
51995;SDS011;38010;53.264;6.592;2023-04-24T14:40:08;1.25;;;0.60;;
51995;SDS011;38010;53.264;6.592;2023-04-24T14:42:34;0.85;;;0.50;;
51995;SDS011;38010;53.264;6.592;2023-04-24T14:45:00;1.63;;;0.68;;
51995;SDS011;38010;53.264;6.592;2023-04-24T14:47:27;1.00;;;0.52;;
51995;SDS011;38010;53.264;6.592;2023-04-24T14:49:52;1.23;;;0.60;;
51995;SDS011;38010;53.264;6.592;2023-04-24T14:52:18;1.35;;;0.50;;
51995;SDS011;38010;53.264;6.592;2023-04-24T14:54:45;1.67;;;0.80;;
51995;SDS011;38010;53.264;6.592;2023-04-24T14:57:10;1.27;;;0.50;;
51995;SDS011;38010;53.264;6.592;2023-04-24T14:59:36;1.40;;;0.80;;